createdAt,value
2017-11-01T00:00:22.834Z,80.65
2017-11-01T00:01:37.037Z,80.75
2017-11-01T00:02:38.917Z,81.32
2017-11-01T00:03:40.795Z,80.84
2017-11-01T00:04:42.675Z,80.55
2017-11-01T00:05:44.493Z,79.80
2017-11-01T00:06:46.314Z,79.60
2017-11-01T00:07:48.197Z,79.70
2017-11-01T00:08:50.076Z,79.51
2017-11-01T00:09:51.957Z,79.70
2017-11-01T00:11:06.110Z,80.18
2017-11-01T00:12:07.992Z,80.18
2017-11-01T00:13:09.872Z,79.80
2017-11-01T00:14:11.752Z,79.70
2017-11-01T00:15:13.570Z,79.32
2017-11-01T00:16:15.388Z,79.03
2017-11-01T00:17:17.275Z,78.85
2017-11-01T00:18:19.154Z,78.65
2017-11-01T00:19:21.036Z,78.56
2017-11-01T00:20:35.186Z,78.37
2017-11-01T00:21:37.068Z,78.37
2017-11-01T00:22:38.948Z,78.46
2017-11-01T00:23:40.841Z,78.46
2017-11-01T00:24:42.660Z,78.85
2017-11-01T00:25:44.489Z,79.03
2017-11-01T00:26:46.307Z,78.75
2017-11-01T00:27:48.186Z,78.94
2017-11-01T00:28:50.066Z,78.94
2017-11-01T00:30:04.219Z,79.03
2017-11-01T00:31:06.100Z,79.22
2017-11-01T00:32:07.984Z,78.85
2017-11-01T00:33:09.862Z,78.37
2017-11-01T00:34:11.681Z,78.75
2017-11-01T00:35:13.499Z,78.56
2017-11-01T00:36:15.384Z,78.37
2017-11-01T00:37:17.263Z,78.65
2017-11-01T00:38:19.145Z,78.17
2017-11-01T00:39:33.297Z,78.27
2017-11-01T00:40:35.176Z,78.17
2017-11-01T00:41:37.056Z,78.17
2017-11-01T00:42:38.933Z,78.27
2017-11-01T00:43:40.758Z,78.65
2017-11-01T00:44:42.575Z,78.75
2017-11-01T00:45:44.460Z,78.65
2017-11-01T00:46:46.335Z,78.65
2017-11-01T00:47:48.219Z,78.56
2017-11-01T00:49:02.373Z,78.17
2017-11-01T00:50:04.251Z,78.65
2017-11-01T00:51:06.134Z,78.65
2017-11-01T00:52:08.012Z,78.65
2017-11-01T00:53:09.831Z,78.46
2017-11-01T00:54:11.652Z,78.75
2017-11-01T00:55:13.534Z,78.65
2017-11-01T00:56:15.411Z,78.46
2017-11-01T00:57:17.293Z,78.65
2017-11-01T00:58:31.447Z,78.46
2017-11-01T00:59:33.330Z,78.46
2017-11-01T01:00:35.211Z,78.75
2017-11-01T01:01:37.088Z,79.32
2017-11-01T01:02:38.918Z,79.22
2017-11-01T01:03:40.735Z,79.22
2017-11-01T01:04:42.615Z,79.41
2017-11-01T01:05:44.491Z,79.22
2017-11-01T01:06:46.374Z,78.94
2017-11-01T01:08:00.524Z,79.41
2017-11-01T01:09:02.406Z,78.85
2017-11-01T01:10:04.285Z,78.46
2017-11-01T01:11:06.166Z,78.46
2017-11-01T01:12:07.985Z,78.65
2017-11-01T01:13:09.807Z,79.22
2017-11-01T01:14:11.686Z,78.65
2017-11-01T01:15:13.566Z,79.22
2017-11-01T01:16:15.447Z,78.94
2017-11-01T01:17:29.600Z,79.22
2017-11-01T01:18:31.486Z,79.51
2017-11-01T01:19:33.361Z,79.13
2017-11-01T01:20:35.252Z,79.99
2017-11-01T01:21:37.080Z,79.51
2017-11-01T01:22:38.910Z,79.41
2017-11-01T01:23:40.792Z,79.41
2017-11-01T01:24:42.668Z,79.51
2017-11-01T01:25:44.545Z,79.03
2017-11-01T01:26:58.698Z,79.32
2017-11-01T01:28:00.579Z,79.32
2017-11-01T01:29:02.463Z,79.22
2017-11-01T01:30:04.341Z,79.32
2017-11-01T01:31:06.169Z,79.32
2017-11-01T01:32:07.986Z,79.13
2017-11-01T01:33:09.866Z,78.94
2017-11-01T01:34:11.745Z,78.75
2017-11-01T01:35:13.625Z,78.56
2017-11-01T01:36:27.828Z,78.94
2017-11-01T01:37:29.706Z,79.03
2017-11-01T01:38:31.585Z,78.75
2017-11-01T01:39:33.463Z,78.65
2017-11-01T01:40:35.281Z,78.75
2017-11-01T01:41:37.108Z,78.65
2017-11-01T01:42:38.988Z,78.75
2017-11-01T01:43:40.868Z,78.37
2017-11-01T01:44:42.745Z,78.75
2017-11-01T01:45:56.898Z,78.65
2017-11-01T01:46:58.778Z,78.85
2017-11-01T01:48:00.659Z,78.75
2017-11-01T01:49:02.538Z,78.27
2017-11-01T01:50:04.357Z,78.75
2017-11-01T01:51:06.179Z,78.56
2017-11-01T01:52:08.060Z,78.85
2017-11-01T01:53:09.941Z,79.22
2017-11-01T01:54:11.822Z,79.03
2017-11-01T01:55:26.025Z,78.65
2017-11-01T01:56:27.904Z,78.27
2017-11-01T01:57:29.784Z,78.37
2017-11-01T01:58:31.663Z,78.17
2017-11-01T01:59:33.490Z,78.27
2017-11-01T02:00:35.303Z,78.17
2017-11-01T02:01:37.184Z,77.98
2017-11-01T02:02:39.026Z,77.70
2017-11-01T02:03:40.839Z,78.17
2017-11-01T02:04:54.988Z,77.80
2017-11-01T02:05:56.868Z,77.61
2017-11-01T02:06:58.749Z,78.17
2017-11-01T02:08:00.631Z,78.17
2017-11-01T02:09:02.451Z,78.17
2017-11-01T02:10:04.270Z,77.80
2017-11-01T02:11:06.155Z,78.27
2017-11-01T02:12:08.030Z,77.89
2017-11-01T02:13:09.912Z,78.08
2017-11-01T02:14:24.064Z,78.37
2017-11-01T02:15:25.946Z,77.80
2017-11-01T02:16:27.827Z,77.80
2017-11-01T02:17:29.707Z,77.61
2017-11-01T02:18:31.535Z,77.70
2017-11-01T02:19:33.352Z,77.51
2017-11-01T02:20:35.230Z,77.61
2017-11-01T02:21:37.111Z,77.80
2017-11-01T02:22:38.996Z,77.70
2017-11-01T02:23:53.146Z,77.80
2017-11-01T02:24:55.025Z,77.61
2017-11-01T02:25:56.907Z,77.51
2017-11-01T02:26:58.786Z,77.51
2017-11-01T02:28:00.608Z,77.80
2017-11-01T02:29:02.425Z,77.42
2017-11-01T02:30:04.311Z,78.17
2017-11-01T02:31:06.192Z,78.08
2017-11-01T02:32:08.071Z,78.56
2017-11-01T02:33:22.225Z,78.17
2017-11-01T02:34:24.107Z,78.27
2017-11-01T02:35:25.988Z,78.17
2017-11-01T02:36:27.869Z,77.80
2017-11-01T02:37:29.690Z,78.17
2017-11-01T02:38:31.506Z,78.37
2017-11-01T02:39:33.389Z,78.08
2017-11-01T02:40:35.266Z,78.27
2017-11-01T02:41:37.147Z,78.46
2017-11-01T02:42:51.299Z,78.65
2017-11-01T02:43:53.181Z,78.94
2017-11-01T02:44:55.062Z,78.65
2017-11-01T02:45:56.939Z,78.46
2017-11-01T02:46:58.756Z,77.80
2017-11-01T02:48:00.572Z,78.27
2017-11-01T02:49:02.450Z,78.94
2017-11-01T02:50:04.327Z,78.65
2017-11-01T02:51:06.204Z,78.27
2017-11-01T02:52:20.366Z,78.75
2017-11-01T02:53:22.248Z,78.46
2017-11-01T02:54:24.127Z,78.65
2017-11-01T02:55:26.004Z,78.56
2017-11-01T02:56:27.822Z,78.37
2017-11-01T02:57:29.634Z,78.08
2017-11-01T02:58:31.511Z,78.27
2017-11-01T02:59:33.393Z,78.08
2017-11-01T03:00:35.265Z,78.37
2017-11-01T03:01:49.398Z,78.08
2017-11-01T03:02:51.215Z,78.27
2017-11-01T03:03:53.032Z,78.94
2017-11-01T03:04:54.850Z,78.94
2017-11-01T03:05:56.728Z,78.75
2017-11-01T03:06:58.607Z,78.94
2017-11-01T03:08:00.458Z,79.03
2017-11-01T03:09:02.274Z,79.03
2017-11-01T03:10:04.092Z,78.75
2017-11-01T03:11:18.300Z,79.03
2017-11-01T03:12:20.178Z,79.22
2017-11-01T03:13:22.057Z,78.99
2017-11-01T03:14:23.936Z,79.60
2017-11-01T03:15:25.748Z,79.32
2017-11-01T03:16:27.562Z,78.90
2017-11-01T03:17:29.438Z,78.99
2017-11-01T03:18:31.323Z,78.99
2017-11-01T03:19:33.210Z,78.99
2017-11-01T03:20:47.350Z,79.19
2017-11-01T03:21:49.224Z,78.99
2017-11-01T03:22:51.106Z,79.47
2017-11-01T03:23:52.976Z,79.85
2017-11-01T03:24:54.792Z,79.85
2017-11-01T03:25:56.601Z,79.75
2017-11-01T03:26:58.478Z,80.04
2017-11-01T03:28:00.352Z,80.52
2017-11-01T03:29:02.245Z,80.33
2017-11-01T03:30:16.381Z,80.61
2017-11-01T03:31:18.253Z,80.42
2017-11-01T03:32:20.130Z,81.56
2017-11-01T03:33:22.007Z,81.28
2017-11-01T03:34:23.819Z,81.18
2017-11-01T03:35:25.633Z,81.09
2017-11-01T03:36:27.510Z,80.94
2017-11-01T03:37:29.388Z,80.84
2017-11-01T03:38:31.265Z,80.75
2017-11-01T03:39:45.413Z,80.08
2017-11-01T03:40:47.289Z,80.27
2017-11-01T03:41:49.170Z,79.89
2017-11-01T03:42:51.051Z,79.89
2017-11-01T03:43:52.886Z,79.51
2017-11-01T03:44:54.697Z,79.22
2017-11-01T03:45:56.575Z,79.51
2017-11-01T03:46:58.454Z,79.70
2017-11-01T03:48:00.333Z,79.03
2017-11-01T03:49:14.483Z,79.22
2017-11-01T03:50:16.360Z,79.03
2017-11-01T03:51:18.238Z,78.94
2017-11-01T03:52:20.121Z,79.03
2017-11-01T03:53:21.946Z,78.46
2017-11-01T03:54:23.771Z,79.03
2017-11-01T03:55:25.647Z,78.75
2017-11-01T03:56:27.523Z,78.46
2017-11-01T03:57:29.408Z,78.85
2017-11-01T03:58:43.554Z,78.56
2017-11-01T03:59:45.428Z,78.56
2017-11-01T04:00:47.503Z,78.65
2017-11-01T04:01:49.382Z,78.56
2017-11-01T04:02:51.197Z,79.22
2017-11-01T04:03:53.011Z,79.03
2017-11-01T04:04:54.885Z,78.75
2017-11-01T04:05:56.762Z,78.65
2017-11-01T04:06:58.642Z,78.37
2017-11-01T04:08:12.791Z,78.65
2017-11-01T04:09:14.667Z,79.03
2017-11-01T04:10:16.545Z,78.75
2017-11-01T04:11:18.422Z,79.03
2017-11-01T04:12:20.238Z,78.17
2017-11-01T04:13:22.052Z,78.37
2017-11-01T04:14:23.929Z,78.27
2017-11-01T04:15:25.807Z,77.70
2017-11-01T04:16:27.683Z,77.70
2017-11-01T04:17:41.837Z,77.61
2017-11-01T04:18:43.723Z,77.70
2017-11-01T04:19:45.613Z,77.51
2017-11-01T04:20:47.500Z,77.22
2017-11-01T04:21:49.304Z,77.51
2017-11-01T04:22:51.117Z,77.51
2017-11-01T04:23:52.996Z,77.51
2017-11-01T04:24:54.873Z,76.94
2017-11-01T04:25:56.754Z,77.13
2017-11-01T04:27:10.961Z,77.32
2017-11-01T04:28:12.825Z,76.75
2017-11-01T04:29:14.703Z,76.46
2017-11-01T04:30:16.592Z,76.56
2017-11-01T04:31:18.406Z,77.07
2017-11-01T04:32:20.233Z,76.84
2017-11-01T04:33:22.068Z,77.17
2017-11-01T04:34:23.946Z,77.51
2017-11-01T04:35:25.828Z,77.80
2017-11-01T04:36:39.992Z,77.61
2017-11-01T04:37:41.860Z,77.42
2017-11-01T04:38:43.750Z,77.80
2017-11-01T04:39:45.626Z,77.51
2017-11-01T04:40:47.447Z,77.80
2017-11-01T04:41:49.253Z,77.80
2017-11-01T04:42:51.128Z,77.98
2017-11-01T04:43:53.006Z,77.51
2017-11-01T04:44:54.883Z,78.65
2017-11-01T04:46:09.043Z,78.65
2017-11-01T04:47:10.918Z,78.94
2017-11-01T04:48:12.806Z,78.37
2017-11-01T04:49:14.684Z,78.17
2017-11-01T04:50:16.499Z,78.17
2017-11-01T04:51:18.317Z,77.98
2017-11-01T04:52:20.204Z,78.08
2017-11-01T04:53:22.081Z,78.37
2017-11-01T04:54:23.964Z,78.46
2017-11-01T04:55:38.162Z,78.27
2017-11-01T04:56:40.038Z,78.27
2017-11-01T04:57:41.917Z,77.51
2017-11-01T04:58:43.795Z,77.51
2017-11-01T04:59:45.609Z,77.70
2017-11-01T05:00:47.423Z,77.70
2017-11-01T05:01:49.300Z,78.37
2017-11-01T05:02:51.180Z,78.75
2017-11-01T05:03:53.060Z,78.56
2017-11-01T05:05:07.209Z,78.94
2017-11-01T05:06:09.096Z,78.85
2017-11-01T05:07:10.983Z,78.94
2017-11-01T05:08:12.860Z,79.51
2017-11-01T05:09:14.681Z,79.99
2017-11-01T05:10:16.498Z,79.51
2017-11-01T05:11:18.371Z,79.51
2017-11-01T05:12:20.247Z,79.89
2017-11-01T05:13:22.136Z,79.13
2017-11-01T05:14:36.286Z,79.55
2017-11-01T05:15:38.163Z,79.89
2017-11-01T05:16:40.051Z,81.74
2017-11-01T05:17:41.938Z,81.93
2017-11-01T05:18:43.755Z,81.26
2017-11-01T05:19:45.580Z,81.26
2017-11-01T05:20:47.465Z,82.60
2017-11-01T05:21:49.353Z,83.88
2017-11-01T05:22:51.230Z,82.26
2017-11-01T05:24:05.391Z,79.78
2017-11-01T05:25:07.275Z,78.35
2017-11-01T05:26:09.146Z,78.03
2017-11-01T05:27:11.021Z,78.22
2017-11-01T05:28:12.839Z,78.12
2017-11-01T05:29:14.652Z,78.50
2017-11-01T05:30:16.530Z,78.50
2017-11-01T05:31:18.423Z,78.12
2017-11-01T05:32:20.304Z,78.31
2017-11-01T05:33:34.454Z,77.93
2017-11-01T05:34:36.332Z,77.55
2017-11-01T05:35:38.224Z,77.74
2017-11-01T05:36:40.103Z,78.41
2017-11-01T05:37:41.924Z,77.93
2017-11-01T05:38:43.733Z,77.93
2017-11-01T05:39:45.617Z,78.31
2017-11-01T05:40:47.497Z,78.03
2017-11-01T05:41:49.387Z,78.22
2017-11-01T05:43:03.541Z,78.22
2017-11-01T05:44:05.421Z,78.31
2017-11-01T05:45:07.306Z,78.56
2017-11-01T05:46:09.182Z,78.75
2017-11-01T05:47:10.997Z,78.56
2017-11-01T05:48:12.823Z,78.65
2017-11-01T05:49:14.705Z,78.27
2017-11-01T05:50:16.584Z,78.17
2017-11-01T05:51:18.468Z,78.75
2017-11-01T05:52:32.637Z,78.85
2017-11-01T05:53:34.510Z,78.27
2017-11-01T05:54:36.414Z,78.37
2017-11-01T05:55:38.298Z,78.65
2017-11-01T05:56:40.114Z,78.65
2017-11-01T05:57:41.930Z,78.85
2017-11-01T05:58:43.811Z,78.65
2017-11-01T05:59:45.695Z,78.27
2017-11-01T06:00:47.576Z,78.94
2017-11-01T06:02:01.743Z,78.75
2017-11-01T06:03:03.624Z,78.65
2017-11-01T06:04:05.499Z,78.56
2017-11-01T06:05:07.380Z,79.03
2017-11-01T06:06:09.196Z,79.03
2017-11-01T06:07:11.023Z,79.03
2017-11-01T06:08:12.911Z,79.32
2017-11-01T06:09:14.794Z,79.13
2017-11-01T06:10:16.676Z,79.13
2017-11-01T06:11:30.829Z,79.03
2017-11-01T06:12:32.708Z,79.03
2017-11-01T06:13:34.599Z,79.51
2017-11-01T06:14:36.480Z,79.80
2017-11-01T06:15:38.307Z,79.99
2017-11-01T06:16:40.125Z,80.27
2017-11-01T06:17:42.010Z,80.36
2017-11-01T06:18:43.894Z,80.65
2017-11-01T06:19:45.786Z,80.27
2017-11-01T06:20:59.937Z,80.55
2017-11-01T06:22:01.824Z,80.46
2017-11-01T06:23:03.712Z,80.55
2017-11-01T06:24:05.603Z,81.03
2017-11-01T06:25:07.422Z,80.55
2017-11-01T06:26:09.239Z,81.03
2017-11-01T06:27:11.123Z,81.03
2017-11-01T06:28:13.004Z,81.23
2017-11-01T06:29:14.892Z,81.23
2017-11-01T06:30:29.092Z,81.41
2017-11-01T06:31:30.974Z,81.41
2017-11-01T06:32:32.858Z,81.32
2017-11-01T06:33:34.740Z,81.41
2017-11-01T06:34:36.570Z,81.41
2017-11-01T06:35:38.389Z,81.32
2017-11-01T06:36:40.269Z,81.32
2017-11-01T06:37:42.155Z,81.23
2017-11-01T06:38:44.038Z,81.60
2017-11-01T06:39:58.236Z,81.32
2017-11-01T06:41:00.106Z,81.70
2017-11-01T06:42:01.990Z,81.23
2017-11-01T06:43:03.874Z,81.13
2017-11-01T06:44:05.715Z,81.32
2017-11-01T06:45:07.527Z,81.51
2017-11-01T06:46:09.372Z,81.51
2017-11-01T06:47:11.190Z,81.51
2017-11-01T06:48:13.015Z,81.32
2017-11-01T06:49:27.167Z,81.51
2017-11-01T06:50:29.047Z,81.13
2017-11-01T06:51:30.941Z,80.75
2017-11-01T06:52:32.822Z,80.94
2017-11-01T06:53:34.647Z,80.75
2017-11-01T06:54:36.463Z,80.84
2017-11-01T06:55:38.347Z,81.03
2017-11-01T06:56:40.233Z,81.13
2017-11-01T06:57:42.117Z,80.65
2017-11-01T06:58:56.269Z,80.75
2017-11-01T06:59:58.151Z,80.88
2017-11-01T07:01:00.044Z,80.55
2017-11-01T07:02:01.925Z,80.55
2017-11-01T07:03:03.748Z,80.94
2017-11-01T07:04:05.572Z,81.03
2017-11-01T07:05:07.455Z,80.94
2017-11-01T07:06:09.346Z,80.75
2017-11-01T07:07:11.233Z,80.41
2017-11-01T07:08:25.390Z,80.69
2017-11-01T07:09:27.275Z,80.12
2017-11-01T07:10:29.522Z,80.31
2017-11-01T07:11:31.400Z,80.50
2017-11-01T07:12:33.226Z,80.22
2017-11-01T07:13:35.037Z,80.31
2017-11-01T07:14:36.922Z,80.31
2017-11-01T07:15:38.808Z,80.12
2017-11-01T07:16:40.694Z,80.50
2017-11-01T07:17:54.849Z,80.41
2017-11-01T07:18:56.740Z,80.69
2017-11-01T07:19:58.618Z,80.50
2017-11-01T07:21:00.503Z,80.69
2017-11-01T07:22:02.322Z,80.50
2017-11-01T07:23:04.153Z,80.60
2017-11-01T07:24:06.039Z,80.50
2017-11-01T07:25:07.922Z,80.60
2017-11-01T07:26:09.847Z,80.50
2017-11-01T07:27:24.085Z,80.26
2017-11-01T07:28:25.944Z,79.88
2017-11-01T07:29:27.835Z,79.55
2017-11-01T07:30:29.717Z,79.55
2017-11-01T07:31:31.541Z,80.07
2017-11-01T07:32:33.359Z,80.02
2017-11-01T07:33:35.244Z,79.49
2017-11-01T07:34:37.128Z,80.07
2017-11-01T07:35:39.018Z,79.83
2017-11-01T07:36:53.173Z,79.49
2017-11-01T07:37:55.058Z,79.02
2017-11-01T07:38:56.945Z,79.68
2017-11-01T07:39:58.830Z,79.78
2017-11-01T07:41:00.664Z,79.78
2017-11-01T07:42:02.483Z,79.68
2017-11-01T07:43:04.371Z,79.11
2017-11-01T07:44:06.257Z,79.11
2017-11-01T07:45:08.145Z,79.11
2017-11-01T07:46:22.302Z,78.73
2017-11-01T07:47:24.192Z,78.54
2017-11-01T07:48:26.071Z,78.92
2017-11-01T07:49:27.958Z,78.83
2017-11-01T07:50:29.777Z,78.44
2017-11-01T07:51:31.612Z,79.30
2017-11-01T07:52:33.431Z,79.11
2017-11-01T07:53:35.252Z,79.02
2017-11-01T07:54:37.079Z,79.11
2017-11-01T07:55:51.233Z,78.92
2017-11-01T07:56:53.117Z,79.11
2017-11-01T07:57:55.013Z,79.40
2017-11-01T07:58:56.900Z,79.21
2017-11-01T07:59:58.721Z,79.30
2017-11-01T08:01:00.541Z,78.92
2017-11-01T08:02:02.435Z,78.92
2017-11-01T08:03:04.310Z,79.11
2017-11-01T08:04:06.197Z,79.11
2017-11-01T08:05:20.353Z,79.11
2017-11-01T08:06:22.245Z,79.02
2017-11-01T08:07:24.124Z,79.02
2017-11-01T08:08:26.007Z,79.21
2017-11-01T08:09:27.828Z,79.40
2017-11-01T08:10:29.647Z,79.40
2017-11-01T08:11:31.532Z,79.88
2017-11-01T08:12:33.417Z,79.40
2017-11-01T08:13:35.302Z,79.78
2017-11-01T08:14:49.458Z,79.21
2017-11-01T08:15:51.340Z,79.78
2017-11-01T08:16:53.245Z,79.40
2017-11-01T08:17:55.126Z,79.11
2017-11-01T08:18:56.950Z,79.11
2017-11-01T08:19:58.765Z,79.30
2017-11-01T08:21:00.649Z,79.40
2017-11-01T08:22:02.549Z,79.68
2017-11-01T08:23:04.434Z,79.49
2017-11-01T08:24:18.590Z,79.02
2017-11-01T08:25:20.495Z,79.49
2017-11-01T08:26:22.389Z,79.21
2017-11-01T08:27:24.259Z,79.49
2017-11-01T08:28:26.076Z,79.25
2017-11-01T08:29:27.897Z,79.06
2017-11-01T08:30:29.820Z,79.44
2017-11-01T08:31:31.707Z,79.15
2017-11-01T08:32:33.592Z,79.06
2017-11-01T08:33:47.806Z,78.96
2017-11-01T08:34:49.691Z,78.58
2017-11-01T08:35:51.583Z,78.77
2017-11-01T08:36:53.464Z,78.96
2017-11-01T08:37:55.286Z,78.58
2017-11-01T08:38:57.108Z,78.86
2017-11-01T08:39:59.030Z,79.06
2017-11-01T08:41:00.922Z,78.86
2017-11-01T08:42:02.808Z,78.58
2017-11-01T08:43:16.977Z,78.77
2017-11-01T08:44:18.864Z,79.06
2017-11-01T08:45:20.760Z,78.77
2017-11-01T08:46:22.654Z,78.58
2017-11-01T08:47:24.476Z,79.15
2017-11-01T08:48:26.303Z,79.06
2017-11-01T08:49:28.193Z,79.35
2017-11-01T08:50:30.078Z,79.25
2017-11-01T08:51:31.965Z,79.35
2017-11-01T08:52:46.127Z,79.15
2017-11-01T08:53:48.008Z,79.15
2017-11-01T08:54:49.894Z,79.72
2017-11-01T08:55:51.779Z,79.82
2017-11-01T08:56:53.611Z,79.53
2017-11-01T08:57:55.432Z,79.25
2017-11-01T08:58:57.320Z,79.53
2017-11-01T08:59:59.200Z,79.53
2017-11-01T09:01:01.087Z,79.06
2017-11-01T09:02:15.244Z,79.15
2017-11-01T09:03:17.129Z,78.77
2017-11-01T09:04:19.014Z,78.86
2017-11-01T09:05:20.901Z,78.96
2017-11-01T09:06:22.720Z,79.15
2017-11-01T09:07:24.551Z,78.96
2017-11-01T09:08:26.437Z,79.63
2017-11-01T09:09:28.330Z,79.72
2017-11-01T09:10:30.220Z,79.25
2017-11-01T09:11:44.382Z,79.72
2017-11-01T09:12:46.258Z,79.10
2017-11-01T09:13:48.148Z,79.15
2017-11-01T09:14:50.046Z,79.48
2017-11-01T09:15:51.867Z,79.19
2017-11-01T09:16:53.688Z,79.00
2017-11-01T09:17:55.548Z,78.81
2017-11-01T09:18:57.361Z,78.52
2017-11-01T09:19:59.208Z,79.10
2017-11-01T09:21:13.375Z,78.81
2017-11-01T09:22:15.259Z,78.91
2017-11-01T09:23:17.141Z,78.72
2017-11-01T09:24:19.025Z,78.62
2017-11-01T09:25:20.844Z,79.10
2017-11-01T09:26:22.662Z,79.00
2017-11-01T09:27:24.547Z,78.58
2017-11-01T09:28:26.428Z,79.38
2017-11-01T09:29:28.318Z,79.57
2017-11-01T09:30:42.479Z,79.25
2017-11-01T09:31:44.363Z,78.96
2017-11-01T09:32:46.248Z,79.44
2017-11-01T09:33:48.135Z,79.53
2017-11-01T09:34:49.963Z,79.53
2017-11-01T09:35:51.778Z,80.01
2017-11-01T09:36:53.670Z,79.63
2017-11-01T09:37:55.561Z,80.01
2017-11-01T09:38:57.448Z,80.01
2017-11-01T09:40:11.614Z,79.91
2017-11-01T09:41:13.497Z,80.49
2017-11-01T09:42:15.393Z,80.20
2017-11-01T09:43:17.278Z,80.30
2017-11-01T09:44:19.110Z,80.49
2017-11-01T09:45:20.931Z,80.58
2017-11-01T09:46:22.818Z,80.49
2017-11-01T09:47:24.701Z,80.20
2017-11-01T09:48:26.586Z,80.30
2017-11-01T09:49:40.742Z,79.91
2017-11-01T09:50:42.621Z,80.01
2017-11-01T09:51:44.511Z,80.01
2017-11-01T09:52:46.393Z,80.20
2017-11-01T09:53:48.217Z,80.20
2017-11-01T09:54:50.041Z,80.11
2017-11-01T09:55:51.927Z,79.67
2017-11-01T09:56:53.809Z,79.96
2017-11-01T09:57:55.704Z,79.48
2017-11-01T09:59:09.863Z,79.19
2017-11-01T10:00:11.743Z,79.10
2017-11-01T10:01:13.626Z,79.00
2017-11-01T10:02:15.508Z,79.48
2017-11-01T10:03:17.331Z,79.38
2017-11-01T10:04:19.149Z,79.48
2017-11-01T10:05:21.031Z,79.33
2017-11-01T10:06:22.915Z,79.23
2017-11-01T10:07:24.795Z,79.23
2017-11-01T10:08:38.954Z,79.23
2017-11-01T10:09:40.835Z,79.33
2017-11-01T10:10:42.728Z,79.14
2017-11-01T10:11:44.611Z,78.66
2017-11-01T10:12:46.443Z,78.66
2017-11-01T10:13:48.276Z,78.66
2017-11-01T10:14:50.147Z,78.62
2017-11-01T10:15:52.030Z,78.28
2017-11-01T10:16:53.878Z,78.23
2017-11-01T10:18:08.084Z,79.00
2017-11-01T10:19:09.963Z,79.00
2017-11-01T10:20:11.857Z,78.47
2017-11-01T10:21:13.741Z,78.28
2017-11-01T10:22:15.572Z,78.47
2017-11-01T10:23:17.388Z,78.47
2017-11-01T10:24:19.270Z,78.56
2017-11-01T10:25:21.150Z,78.66
2017-11-01T10:26:23.035Z,78.43
2017-11-01T10:27:37.194Z,78.33
2017-11-01T10:28:39.069Z,79.10
2017-11-01T10:29:40.954Z,78.72
2017-11-01T10:30:42.835Z,78.47
2017-11-01T10:31:44.662Z,78.85
2017-11-01T10:32:46.481Z,78.28
2017-11-01T10:33:48.362Z,77.70
2017-11-01T10:34:50.248Z,77.89
2017-11-01T10:35:52.128Z,78.09
2017-11-01T10:37:06.296Z,77.89
2017-11-01T10:38:08.169Z,78.47
2017-11-01T10:39:10.055Z,78.18
2017-11-01T10:40:11.938Z,78.47
2017-11-01T10:41:13.770Z,78.47
2017-11-01T10:42:15.593Z,78.75
2017-11-01T10:43:17.474Z,78.56
2017-11-01T10:44:19.359Z,78.56
2017-11-01T10:45:21.241Z,78.33
2017-11-01T10:46:35.400Z,78.47
2017-11-01T10:47:37.281Z,78.28
2017-11-01T10:48:39.168Z,78.28
2017-11-01T10:49:41.049Z,78.43
2017-11-01T10:50:42.870Z,78.33
2017-11-01T10:51:44.691Z,78.43
2017-11-01T10:52:46.577Z,78.52
2017-11-01T10:53:48.456Z,78.52
2017-11-01T10:54:50.350Z,79.14
2017-11-01T10:56:04.506Z,79.43
2017-11-01T10:57:06.388Z,78.94
2017-11-01T10:58:08.280Z,79.04
2017-11-01T10:59:10.162Z,78.66
2017-11-01T11:00:11.983Z,78.85
2017-11-01T11:01:13.815Z,78.85
2017-11-01T11:02:15.697Z,78.85
2017-11-01T11:03:17.582Z,78.47
2017-11-01T11:04:19.465Z,78.66
2017-11-01T11:05:33.625Z,79.04
2017-11-01T11:06:35.510Z,79.52
2017-11-01T11:07:37.395Z,78.94
2017-11-01T11:08:39.278Z,78.85
2017-11-01T11:09:41.098Z,78.75
2017-11-01T11:10:42.922Z,78.37
2017-11-01T11:11:44.801Z,79.04
2017-11-01T11:12:46.682Z,79.04
2017-11-01T11:13:48.567Z,78.47
2017-11-01T11:15:02.725Z,79.00
2017-11-01T11:16:04.606Z,79.10
2017-11-01T11:17:06.494Z,79.23
2017-11-01T11:18:08.371Z,79.23
2017-11-01T11:19:10.193Z,79.23
2017-11-01T11:20:12.025Z,79.23
2017-11-01T11:21:13.919Z,79.23
2017-11-01T11:22:15.804Z,79.23
2017-11-01T11:23:17.683Z,79.23
2017-11-01T11:24:31.852Z,79.43
2017-11-01T11:25:33.739Z,78.85
2017-11-01T11:26:35.621Z,78.56
2017-11-01T11:27:37.503Z,78.75
2017-11-01T11:28:39.339Z,78.94
2017-11-01T11:29:41.170Z,78.85
2017-11-01T11:30:43.055Z,78.94
2017-11-01T11:31:44.941Z,78.62
2017-11-01T11:32:46.816Z,79.10
2017-11-01T11:34:01.034Z,79.48
2017-11-01T11:35:02.914Z,79.48
2017-11-01T11:36:04.795Z,79.86
2017-11-01T11:37:06.675Z,79.67
2017-11-01T11:38:08.508Z,80.05
2017-11-01T11:39:10.328Z,80.05
2017-11-01T11:40:12.209Z,79.77
2017-11-01T11:41:14.091Z,79.90
2017-11-01T11:42:15.991Z,79.96
2017-11-01T11:43:30.139Z,80.15
2017-11-01T11:44:32.012Z,80.05
2017-11-01T11:45:33.901Z,80.53
2017-11-01T11:46:35.782Z,80.33
2017-11-01T11:47:37.600Z,80.53
2017-11-01T11:48:39.432Z,80.15
2017-11-01T11:49:41.312Z,79.96
2017-11-01T11:50:43.197Z,80.05
2017-11-01T11:51:45.078Z,79.86
2017-11-01T11:52:59.236Z,80.15
2017-11-01T11:54:01.118Z,79.96
2017-11-01T11:55:03.002Z,80.15
2017-11-01T11:56:04.882Z,80.15
2017-11-01T11:57:06.717Z,79.67
2017-11-01T11:58:08.539Z,79.48
2017-11-01T11:59:10.422Z,79.38
2017-11-01T12:00:12.306Z,79.28
2017-11-01T12:01:14.193Z,79.57
2017-11-01T12:02:28.351Z,79.96
2017-11-01T12:03:30.232Z,79.86
2017-11-01T12:04:32.115Z,80.05
2017-11-01T12:05:34.014Z,79.38
2017-11-01T12:06:35.816Z,79.67
2017-11-01T12:07:37.637Z,80.05
2017-11-01T12:08:39.518Z,79.48
2017-11-01T12:09:41.401Z,79.19
2017-11-01T12:10:43.283Z,79.67
2017-11-01T12:11:57.436Z,79.43
2017-11-01T12:12:59.321Z,79.19
2017-11-01T12:14:01.205Z,79.52
2017-11-01T12:15:03.086Z,79.61
2017-11-01T12:16:04.904Z,79.23
2017-11-01T12:17:06.737Z,79.23
2017-11-01T12:18:08.619Z,79.61
2017-11-01T12:19:10.501Z,79.33
2017-11-01T12:20:12.383Z,79.71
2017-11-01T12:21:26.529Z,80.19
2017-11-01T12:22:28.349Z,80.57
2017-11-01T12:23:30.169Z,80.28
2017-11-01T12:24:32.060Z,80.28
2017-11-01T12:25:33.947Z,80.09
2017-11-01T12:26:35.824Z,79.80
2017-11-01T12:27:37.628Z,79.80
2017-11-01T12:28:39.448Z,79.61
2017-11-01T12:29:41.328Z,79.52
2017-11-01T12:30:55.550Z,79.61
2017-11-01T12:31:57.423Z,79.23
2017-11-01T12:32:59.308Z,80.09
2017-11-01T12:34:01.188Z,79.52
2017-11-01T12:35:03.011Z,79.14
2017-11-01T12:36:04.834Z,79.52
2017-11-01T12:37:06.715Z,79.14
2017-11-01T12:38:08.598Z,79.14
2017-11-01T12:39:10.480Z,79.14
2017-11-01T12:40:24.641Z,79.23
2017-11-01T12:41:26.518Z,79.23
2017-11-01T12:42:28.419Z,79.23
2017-11-01T12:43:30.325Z,79.23
2017-11-01T12:44:32.146Z,79.23
2017-11-01T12:45:33.967Z,79.14
2017-11-01T12:46:35.849Z,79.43
2017-11-01T12:47:37.730Z,79.23
2017-11-01T12:48:39.614Z,79.14
2017-11-01T12:49:53.771Z,79.71
2017-11-01T12:50:55.652Z,79.43
2017-11-01T12:51:57.538Z,79.61
2017-11-01T12:52:59.424Z,79.43
2017-11-01T12:54:01.245Z,79.61
2017-11-01T12:55:03.064Z,80.19
2017-11-01T12:56:04.944Z,79.99
2017-11-01T12:57:06.826Z,79.90
2017-11-01T12:58:08.709Z,79.80
2017-11-01T12:59:22.876Z,79.52
2017-11-01T13:00:24.748Z,79.52
2017-11-01T13:01:26.631Z,79.71
2017-11-01T13:02:28.512Z,79.46
2017-11-01T13:03:30.336Z,79.56
2017-11-01T13:04:32.168Z,79.36
2017-11-01T13:05:34.050Z,79.27
2017-11-01T13:06:35.937Z,79.27
2017-11-01T13:07:37.818Z,79.27
2017-11-01T13:08:52.016Z,79.27
2017-11-01T13:09:53.827Z,79.27
2017-11-01T13:10:55.721Z,79.14
2017-11-01T13:11:57.614Z,79.52
2017-11-01T13:12:59.508Z,80.28
2017-11-01T13:14:01.332Z,80.57
2017-11-01T13:15:03.153Z,80.95
2017-11-01T13:16:04.996Z,80.85
2017-11-01T13:17:06.819Z,81.62
2017-11-01T13:18:21.026Z,81.62
2017-11-01T13:19:22.905Z,81.81
2017-11-01T13:20:24.787Z,82.00
2017-11-01T13:21:26.667Z,81.33
2017-11-01T13:22:28.488Z,81.71
2017-11-01T13:23:30.320Z,81.62
2017-11-01T13:24:32.201Z,82.00
2017-11-01T13:25:34.110Z,81.81
2017-11-01T13:26:36.040Z,81.90
2017-11-01T13:27:50.270Z,81.62
2017-11-01T13:28:52.193Z,82.00
2017-11-01T13:29:54.088Z,82.00
2017-11-01T13:30:55.984Z,82.19
2017-11-01T13:31:57.806Z,82.38
2017-11-01T13:32:59.627Z,81.90
2017-11-01T13:34:01.508Z,82.19